Albuquerque International Sunport Airport
KABQ : now visible

Aeroporto :











RITROVATECI SU...

 
LOGIN :

Iscrizione | Disclaimer

   EN    FR    IT 

 









Sommario :    VFR   VFR Marginale   IFR   IFR Intensivo   IFR Molto Intensivo
Visibilità : 
Base nubi : 
>= 8 km
>= 3000ft
5 / 8 km
1000 / 3000 ft
1500m / 5 km
500 / 1000 ft
800 / 1500m
200 / 500 ft
< 800m
< 200 ft
Simboli :   Temporali  Nebbia  Neve Forte  Precipitazioni Forti  Vento > 20 kt







- Altitudine del aeroporto : 5355 ft
- Codice IATA : ABQ


KABQ - Albuquerque International Sunport

ULTIMO METAR :
  • 151252Z 16004KT 10SM BKN060 OVC100 19/11 A3028 RMK AO2 SLP183 T01890111

METARs OBSOLETI :
  • 151152Z 00000KT 10SM SCT060 BKN100 BKN150 OVC190 18/11 A3027 RMK AO2 SLP177 T01830106 10206 20183 53001
  • 151052Z 18004KT 10SM FEW075 SCT100 OVC190 18/11 A3027 RMK AO2 SLP174 T01830106

TAF KABQ
Valido dal 15 a 12 ore il 16 a 12 ore UTC


151134Z 1512/1612 VRB05KT P6SM BKN090
FM151500 21005KT 6SM -RA OVC040
FM151800 11007KT P6SM BKN040
TEMPO 1522/1602 5SM -TSRA OVC030CB
FM160900 07006KT 6SM -RA BR OVC025
Nessun NOTAM noto per questo aeroporto.



MetMap, La meteo Aeronautica in un colpo d'occhio ! - Copyright ORBIFLY Dicembre 2007 - Disclaimer

ORBIFLY MET'MAP TEAM :

Programmazione e sviluppo : Alexandra Zaïnal
Concezione e sviluppo : Baudouin d'Aumeries
Co-Programmazione e sviluppo : Marc-Olivier Méhu
Supporto tecnico e logistico : Manuel Goepfert
Aiuto per la traduzione : Arnaldo La Scala

Contatto : metmap@orbifly.com




FONTI E CREDITI :

   NOAA       Earth
Advisory